createdAt,value
2022-10-15T00:00:09.458Z,18.63
2022-10-15T00:02:36.471Z,18.37
2022-10-15T00:05:03.341Z,19.03
2022-10-15T00:07:30.230Z,18.83
2022-10-15T00:09:56.996Z,18.73
2022-10-15T00:12:24.017Z,19.07
2022-10-15T00:14:50.766Z,19.70
2022-10-15T00:17:17.639Z,18.23
2022-10-15T00:19:44.471Z,19.07
2022-10-15T00:22:11.282Z,18.80
2022-10-15T00:24:38.093Z,18.80
2022-10-15T00:27:05.219Z,18.63
2022-10-15T00:29:32.666Z,18.93
2022-10-15T00:31:59.748Z,17.93
2022-10-15T00:34:26.666Z,18.83
2022-10-15T00:36:53.446Z,18.53
2022-10-15T00:39:20.494Z,19.17
2022-10-15T00:41:48.308Z,18.20
2022-10-15T00:44:21.593Z,18.53
2022-10-15T00:46:49.522Z,17.40
2022-10-15T00:49:22.063Z,17.63
2022-10-15T00:51:52.207Z,18.63
2022-10-15T00:54:19.808Z,16.40
2022-10-15T00:56:47.191Z,17.33
2022-10-15T00:59:14.445Z,16.87
2022-10-15T01:01:41.587Z,16.47
2022-10-15T01:04:08.888Z,16.43
2022-10-15T01:06:36.418Z,16.50
2022-10-15T01:09:03.716Z,16.40
2022-10-15T01:11:43.173Z,15.83
2022-10-15T01:14:13.945Z,14.40
2022-10-15T01:16:43.781Z,14.90
2022-10-15T01:19:20.622Z,14.23
2022-10-15T01:22:10.873Z,14.70
2022-10-15T01:24:56.618Z,15.03
2022-10-15T01:27:26.854Z,13.63
2022-10-15T01:30:23.741Z,13.30
2022-10-15T01:32:53.318Z,13.73
2022-10-15T01:35:37.740Z,13.03
2022-10-15T01:38:27.766Z,14.93
2022-10-15T01:40:57.741Z,13.87
2022-10-15T01:43:35.635Z,13.20
2022-10-15T01:46:25.266Z,14.10
2022-10-15T01:49:05.414Z,13.03
2022-10-15T01:51:34.222Z,13.97
2022-10-15T01:54:02.397Z,12.47
2022-10-15T01:56:29.769Z,12.83
2022-10-15T01:58:57.246Z,12.83
2022-10-15T02:01:24.257Z,14.30
2022-10-15T02:03:52.037Z,13.30
2022-10-15T02:06:24.334Z,14.10
2022-10-15T02:09:07.226Z,12.67
2022-10-15T02:11:37.226Z,14.00
2022-10-15T02:14:09.845Z,13.43
2022-10-15T02:16:40.009Z,13.63
2022-10-15T02:19:15.946Z,14.27
2022-10-15T02:21:45.859Z,13.23
2022-10-15T02:24:18.291Z,14.10
2022-10-15T02:26:45.558Z,13.67
2022-10-15T02:29:18.144Z,14.00
2022-10-15T02:31:46.999Z,14.20
2022-10-15T02:34:16.022Z,13.70
2022-10-15T02:36:42.994Z,14.20
2022-10-15T02:39:12.129Z,13.60
2022-10-15T02:41:40.202Z,14.47
2022-10-15T02:44:10.005Z,14.73
2022-10-15T02:46:37.737Z,15.20
2022-10-15T02:49:05.122Z,15.87
2022-10-15T02:51:33.060Z,14.53
2022-10-15T02:54:00.743Z,15.93
2022-10-15T02:56:27.714Z,15.40
2022-10-15T02:58:54.763Z,15.33
2022-10-15T03:01:22.229Z,16.77
2022-10-15T03:03:49.118Z,15.87
2022-10-15T03:06:16.723Z,16.33
2022-10-15T03:08:44.544Z,16.23
2022-10-15T03:11:11.603Z,17.80
2022-10-15T03:13:42.011Z,18.60
2022-10-15T03:16:09.994Z,19.03
2022-10-15T03:18:40.626Z,18.63
2022-10-15T03:21:09.905Z,18.63
2022-10-15T03:23:36.997Z,18.37
2022-10-15T03:26:09.921Z,18.27
2022-10-15T03:28:38.108Z,18.27
2022-10-15T03:31:05.102Z,19.57
2022-10-15T03:33:32.821Z,20.80
2022-10-15T03:36:00.536Z,20.23
2022-10-15T03:38:27.428Z,21.43
2022-10-15T03:40:54.502Z,21.13
2022-10-15T03:43:41.827Z,22.40
2022-10-15T03:46:10.189Z,24.60
2022-10-15T03:48:41.231Z,23.47
2022-10-15T03:51:10.504Z,23.87
2022-10-15T03:53:38.535Z,24.47
2022-10-15T03:56:06.563Z,25.00
2022-10-15T03:58:37.209Z,24.93
2022-10-15T04:01:11.006Z,24.90
2022-10-15T04:03:38.655Z,24.80
2022-10-15T04:06:06.392Z,26.23
2022-10-15T04:08:34.649Z,24.53
2022-10-15T04:11:12.099Z,24.50
2022-10-15T04:13:38.950Z,24.23
2022-10-15T04:16:05.955Z,23.90
2022-10-15T04:18:33.259Z,24.97
2022-10-15T04:21:00.592Z,24.40
2022-10-15T04:23:28.547Z,24.37
2022-10-15T04:26:27.602Z,25.10
2022-10-15T04:28:54.996Z,25.03
2022-10-15T04:31:23.381Z,23.77
2022-10-15T04:33:50.445Z,23.73
2022-10-15T04:38:53.590Z,23.93
2022-10-15T04:41:27.152Z,25.10
2022-10-15T04:43:59.796Z,24.30
2022-10-15T04:46:28.719Z,23.27
2022-10-15T04:48:59.135Z,25.23
2022-10-15T04:51:26.537Z,25.80
2022-10-15T04:54:08.819Z,23.10
2022-10-15T04:56:40.277Z,24.77
2022-10-15T04:59:08.731Z,25.10
2022-10-15T05:01:54.261Z,24.40
2022-10-15T05:04:21.446Z,23.30
2022-10-15T05:06:48.377Z,24.40
2022-10-15T05:09:19.125Z,22.77
2022-10-15T05:11:50.941Z,25.70
2022-10-15T05:14:17.842Z,25.47
2022-10-15T05:16:56.954Z,25.27
2022-10-15T05:19:24.061Z,24.23
2022-10-15T05:21:50.844Z,23.77
2022-10-15T05:24:24.527Z,23.30
2022-10-15T05:26:56.509Z,23.40
2022-10-15T05:29:23.952Z,23.33
2022-10-15T05:31:52.414Z,24.33
2022-10-15T05:34:23.378Z,24.50
2022-10-15T05:36:55.216Z,24.93
2022-10-15T05:39:22.100Z,24.90
2022-10-15T05:41:49.876Z,24.33
2022-10-15T05:44:16.842Z,24.97
2022-10-15T05:46:43.705Z,24.00
2022-10-15T05:49:16.480Z,24.40
2022-10-15T05:52:01.750Z,23.40
2022-10-15T05:55:03.973Z,27.90
2022-10-15T05:57:30.780Z,23.60
2022-10-15T05:59:57.515Z,23.53
2022-10-15T06:02:24.785Z,24.53
2022-10-15T06:04:53.547Z,24.60
2022-10-15T06:07:20.812Z,24.53
2022-10-15T06:09:47.731Z,26.17
2022-10-15T06:12:15.637Z,24.13
2022-10-15T06:14:42.475Z,24.03
2022-10-15T06:17:09.272Z,25.13
2022-10-15T06:19:36.140Z,24.53
2022-10-15T06:22:03.297Z,23.10
2022-10-15T06:24:30.075Z,24.63
2022-10-15T06:26:58.533Z,23.87
2022-10-15T06:29:25.481Z,23.30
2022-10-15T06:31:54.578Z,23.77
2022-10-15T06:34:21.514Z,23.27
2022-10-15T06:36:48.246Z,23.80
2022-10-15T06:39:15.131Z,23.00
2022-10-15T06:41:44.595Z,22.40
2022-10-15T06:44:11.498Z,24.53
2022-10-15T06:46:38.418Z,21.83
2022-10-15T06:49:05.181Z,22.20
2022-10-15T06:51:33.893Z,21.23
2022-10-15T06:54:00.722Z,23.10
2022-10-15T06:56:27.621Z,22.37
2022-10-15T06:58:54.917Z,21.10
2022-10-15T07:01:21.839Z,21.83
2022-10-15T07:03:51.960Z,21.17
2022-10-15T07:06:19.113Z,21.03
2022-10-15T07:08:46.095Z,19.87
2022-10-15T07:11:12.990Z,20.97
2022-10-15T07:13:40.315Z,20.40
2022-10-15T07:16:11.465Z,21.30
2022-10-15T07:18:38.620Z,20.33
2022-10-15T07:21:06.407Z,19.53
2022-10-15T07:23:33.240Z,19.33
2022-10-15T07:26:00.736Z,18.93
2022-10-15T07:28:27.655Z,22.07
2022-10-15T07:30:54.623Z,20.20
2022-10-15T07:33:21.412Z,20.87
2022-10-15T07:35:59.032Z,20.43
2022-10-15T07:38:26.013Z,18.17
2022-10-15T07:40:54.953Z,18.40
2022-10-15T07:43:22.672Z,19.50
2022-10-15T07:45:50.237Z,19.97
2022-10-15T07:48:17.452Z,19.37
2022-10-15T07:50:44.698Z,16.80
2022-10-15T07:53:12.005Z,19.23
2022-10-15T07:55:39.883Z,19.77
2022-10-15T07:58:08.535Z,19.87
2022-10-15T08:00:35.815Z,18.70
2022-10-15T08:03:02.967Z,20.63
2022-10-15T08:05:29.780Z,20.13
2022-10-15T08:07:56.559Z,19.43
2022-10-15T08:10:23.531Z,18.23
2022-10-15T08:12:50.332Z,19.03
2022-10-15T08:15:17.236Z,18.13
2022-10-15T08:17:44.295Z,19.70
2022-10-15T08:20:15.334Z,18.03
2022-10-15T08:22:42.650Z,16.47
2022-10-15T08:25:09.707Z,18.10
2022-10-15T08:27:36.951Z,18.70
2022-10-15T08:30:04.777Z,15.23
2022-10-15T08:32:31.643Z,18.17
2022-10-15T08:34:58.680Z,18.03
2022-10-15T08:37:26.170Z,19.13
2022-10-15T08:39:53.289Z,18.30
2022-10-15T08:42:23.415Z,15.97
2022-10-15T08:44:54.546Z,19.27
2022-10-15T08:47:24.563Z,18.30
2022-10-15T08:49:56.313Z,17.53
2022-10-15T08:52:25.112Z,15.13
2022-10-15T08:54:52.294Z,15.37
2022-10-15T08:57:24.852Z,13.73
2022-10-15T09:00:10.583Z,15.03
2022-10-15T09:03:04.037Z,17.80
2022-10-15T09:05:30.820Z,17.77
2022-10-15T09:08:04.845Z,15.83
2022-10-15T09:10:32.382Z,17.67
2022-10-15T09:13:01.778Z,17.87
2022-10-15T09:15:31.286Z,17.70
2022-10-15T09:17:58.164Z,18.90
2022-10-15T09:20:32.263Z,18.30
2022-10-15T09:22:59.274Z,18.63
2022-10-15T09:25:31.254Z,18.60
2022-10-15T09:28:02.950Z,18.53
2022-10-15T09:30:50.024Z,18.47
2022-10-15T09:33:32.356Z,16.97
2022-10-15T09:36:08.233Z,18.00
2022-10-15T09:38:41.335Z,17.13
2022-10-15T09:41:16.904Z,16.80
2022-10-15T09:43:49.291Z,18.17
2022-10-15T09:46:16.304Z,17.53
2022-10-15T09:48:48.623Z,18.43
2022-10-15T09:51:27.840Z,17.33
2022-10-15T09:54:20.697Z,18.47
2022-10-15T09:56:52.927Z,17.03
2022-10-15T09:59:21.187Z,19.83
2022-10-15T10:02:05.386Z,17.87
2022-10-15T10:04:33.568Z,19.47
2022-10-15T10:07:10.001Z,12.10
2022-10-15T10:09:49.842Z,14.30
2022-10-15T10:12:25.658Z,14.37
2022-10-15T10:15:22.989Z,13.20
2022-10-15T10:17:53.503Z,13.40
2022-10-15T10:20:21.215Z,5.77
2022-10-15T10:22:51.161Z,5.67
2022-10-15T10:25:31.021Z,10.37
2022-10-15T10:28:05.482Z,11.27
2022-10-15T10:30:36.953Z,10.90
2022-10-15T10:33:04.004Z,5.47
2022-10-15T10:35:36.808Z,9.83
2022-10-15T10:38:03.777Z,8.43
2022-10-15T10:40:35.653Z,8.83
2022-10-15T10:43:17.017Z,10.20
2022-10-15T10:45:54.129Z,5.80
2022-10-15T10:48:38.648Z,10.20
2022-10-15T10:51:09.527Z,9.03
2022-10-15T10:53:48.325Z,10.97
2022-10-15T10:56:16.831Z,10.60
2022-10-15T10:58:43.858Z,12.33
2022-10-15T11:01:12.210Z,10.80
2022-10-15T11:03:40.690Z,7.50
2022-10-15T11:06:11.207Z,9.23
2022-10-15T11:08:44.114Z,7.97
2022-10-15T11:11:11.017Z,7.13
2022-10-15T11:13:43.794Z,7.83
2022-10-15T11:16:34.413Z,5.60
2022-10-15T11:19:06.336Z,8.77
2022-10-15T11:21:49.981Z,12.00
2022-10-15T11:25:02.630Z,8.43
2022-10-15T11:28:11.846Z,8.23
2022-10-15T11:30:57.082Z,7.33
2022-10-15T11:33:23.925Z,9.17
2022-10-15T11:36:05.254Z,9.23
2022-10-15T11:38:34.887Z,9.00
2022-10-15T11:41:12.626Z,7.90
2022-10-15T11:43:39.457Z,9.73
2022-10-15T11:46:09.227Z,6.83
2022-10-15T11:48:51.800Z,10.70
2022-10-15T11:51:37.377Z,7.93
2022-10-15T11:54:22.546Z,6.93
2022-10-15T11:56:50.888Z,10.90
2022-10-15T11:59:40.327Z,10.90
2022-10-15T12:02:16.323Z,10.20
2022-10-15T12:04:48.695Z,10.67
2022-10-15T12:07:27.965Z,8.50
2022-10-15T12:09:57.650Z,10.23
2022-10-15T12:12:44.834Z,11.13
2022-10-15T12:15:15.058Z,9.63
2022-10-15T12:17:48.111Z,11.37
2022-10-15T12:20:19.354Z,11.37
2022-10-15T12:22:55.152Z,11.77
2022-10-15T12:25:33.940Z,8.47
2022-10-15T12:28:14.464Z,9.80
2022-10-15T12:30:42.686Z,10.37
2022-10-15T12:33:24.784Z,11.83
2022-10-15T12:36:14.898Z,10.27
2022-10-15T12:38:44.171Z,8.83
2022-10-15T12:41:11.763Z,9.90
2022-10-15T12:43:43.582Z,8.97
2022-10-15T12:46:11.202Z,10.53
2022-10-15T12:48:39.707Z,11.43
2022-10-15T12:51:21.630Z,11.50
2022-10-15T12:53:49.441Z,12.10
2022-10-15T12:56:16.180Z,12.90
2022-10-15T12:58:43.006Z,9.63
2022-10-15T13:01:16.042Z,11.43
2022-10-15T13:03:49.104Z,10.53
2022-10-15T13:06:15.901Z,11.03
2022-10-15T13:08:44.106Z,9.70
2022-10-15T13:11:18.982Z,12.00
2022-10-15T13:13:46.078Z,13.00
2022-10-15T13:16:13.251Z,10.87
2022-10-15T13:18:41.885Z,12.20
2022-10-15T13:21:11.354Z,10.93
2022-10-15T13:23:44.878Z,11.10
2022-10-15T13:26:12.903Z,12.63
2022-10-15T13:28:42.199Z,11.70
2022-10-15T13:31:18.283Z,12.27
2022-10-15T13:33:46.385Z,11.80
2022-10-15T13:36:26.835Z,11.93
2022-10-15T13:38:55.524Z,10.60
2022-10-15T13:41:23.715Z,10.57
2022-10-15T13:43:51.704Z,12.17
2022-10-15T13:46:18.494Z,11.50
2022-10-15T13:48:45.365Z,10.83
2022-10-15T13:51:13.600Z,12.07
2022-10-15T13:53:41.378Z,11.73
2022-10-15T13:56:37.747Z,12.87
2022-10-15T13:59:04.779Z,11.83
2022-10-15T14:01:33.328Z,12.40
2022-10-15T14:04:01.040Z,11.37
2022-10-15T14:06:29.085Z,12.03
2022-10-15T14:08:58.882Z,11.90
2022-10-15T14:11:26.248Z,10.70
2022-10-15T14:13:55.098Z,11.63
2022-10-15T14:16:28.311Z,10.83
2022-10-15T14:19:07.862Z,11.67
2022-10-15T14:21:36.921Z,11.90
2022-10-15T14:24:12.956Z,10.90
2022-10-15T14:26:40.192Z,10.50
2022-10-15T14:29:07.693Z,11.47
2022-10-15T14:31:37.635Z,10.80
2022-10-15T14:34:26.255Z,11.57
2022-10-15T14:36:53.706Z,10.07
2022-10-15T14:39:41.489Z,11.37
2022-10-15T14:42:28.676Z,10.50
2022-10-15T14:44:56.945Z,9.63
2022-10-15T14:47:28.946Z,10.17
2022-10-15T14:50:00.135Z,11.33
2022-10-15T14:52:28.576Z,10.97
2022-10-15T14:55:08.202Z,11.20
2022-10-15T14:57:38.902Z,10.63
2022-10-15T15:00:11.748Z,10.57
2022-10-15T15:02:39.806Z,10.27
2022-10-15T15:05:13.154Z,11.00
2022-10-15T15:07:40.591Z,11.33
2022-10-15T15:10:09.055Z,13.23
2022-10-15T15:12:38.804Z,8.53
2022-10-15T15:15:13.199Z,6.77
2022-10-15T15:17:40.825Z,10.97
2022-10-15T15:20:09.166Z,11.27
2022-10-15T15:22:37.811Z,12.10
2022-10-15T15:25:08.473Z,11.47
2022-10-15T15:27:37.989Z,6.30
2022-10-15T15:30:06.888Z,11.07
2022-10-15T15:32:34.287Z,10.47
2022-10-15T15:35:01.489Z,10.70
2022-10-15T15:37:30.967Z,12.50
2022-10-15T15:39:59.922Z,11.57
2022-10-15T15:42:27.852Z,10.43
2022-10-15T15:44:55.319Z,10.97
2022-10-15T15:47:22.935Z,10.87
2022-10-15T15:49:49.809Z,11.30
2022-10-15T15:52:19.715Z,12.17
2022-10-15T15:54:47.463Z,12.33
2022-10-15T15:57:14.818Z,12.60
2022-10-15T15:59:42.724Z,9.60
2022-10-15T16:02:10.433Z,13.73
2022-10-15T16:04:37.863Z,5.60
2022-10-15T16:07:06.977Z,12.00
2022-10-15T16:09:36.345Z,12.60
2022-10-15T16:12:03.505Z,12.70
2022-10-15T16:14:30.541Z,12.87
2022-10-15T16:16:57.323Z,8.00
2022-10-15T16:19:25.333Z,6.90
2022-10-15T16:21:52.984Z,6.40
2022-10-15T16:24:20.905Z,12.17
2022-10-15T16:26:48.660Z,11.87
2022-10-15T16:29:17.313Z,12.37
2022-10-15T16:31:44.951Z,5.70
2022-10-15T16:34:12.243Z,11.33
2022-10-15T16:36:39.306Z,11.47
2022-10-15T16:39:06.087Z,12.63
2022-10-15T16:41:33.289Z,11.87
2022-10-15T16:44:00.067Z,13.07
2022-10-15T16:46:27.366Z,11.00
2022-10-15T16:48:55.759Z,11.73
2022-10-15T16:51:23.411Z,12.37
2022-10-15T16:53:51.674Z,12.63
2022-10-15T16:56:25.972Z,11.70
2022-10-15T16:58:53.102Z,14.97
2022-10-15T17:01:21.634Z,13.20
2022-10-15T17:03:48.961Z,12.13
2022-10-15T17:06:17.608Z,11.20
2022-10-15T17:08:48.396Z,11.17
2022-10-15T17:11:16.902Z,11.33
2022-10-15T17:13:43.733Z,11.17
2022-10-15T17:16:13.735Z,9.93
2022-10-15T17:18:41.532Z,10.90
2022-10-15T17:21:09.603Z,11.13
2022-10-15T17:23:36.816Z,10.47
2022-10-15T17:26:05.106Z,11.00
2022-10-15T17:28:31.931Z,10.03
2022-10-15T17:31:02.973Z,11.10
2022-10-15T17:33:30.078Z,12.30
2022-10-15T17:35:56.925Z,10.70
2022-10-15T17:38:23.746Z,10.83
2022-10-15T17:40:50.602Z,10.90
2022-10-15T17:43:17.546Z,11.67
2022-10-15T17:45:44.303Z,11.73
2022-10-15T17:48:11.322Z,10.70
2022-10-15T17:50:44.529Z,11.30
2022-10-15T17:53:13.500Z,9.97
2022-10-15T17:55:40.516Z,12.37
2022-10-15T17:58:07.650Z,11.73
2022-10-15T18:00:34.431Z,11.77
2022-10-15T18:03:01.338Z,11.43
2022-10-15T18:05:28.277Z,11.87
2022-10-15T18:07:55.106Z,10.90
2022-10-15T18:10:22.847Z,10.73
2022-10-15T18:12:49.746Z,10.07
2022-10-15T18:15:16.551Z,10.83
2022-10-15T18:17:43.439Z,10.90
2022-10-15T18:20:10.489Z,11.03
2022-10-15T18:22:37.279Z,10.27
2022-10-15T18:25:04.233Z,10.77
2022-10-15T18:27:31.143Z,10.00
2022-10-15T18:29:59.473Z,10.87
2022-10-15T18:32:26.356Z,9.90
2022-10-15T18:34:53.189Z,11.00
2022-10-15T18:37:21.691Z,10.23
2022-10-15T18:39:48.445Z,11.07
2022-10-15T18:42:15.319Z,11.10
2022-10-15T18:44:42.057Z,10.53
2022-10-15T18:47:08.884Z,10.20
2022-10-15T18:49:43.579Z,10.57
2022-10-15T18:52:21.537Z,11.13
2022-10-15T18:54:55.156Z,9.93
2022-10-15T18:57:22.137Z,10.83
2022-10-15T18:59:49.299Z,10.00
2022-10-15T19:02:16.661Z,10.23
2022-10-15T19:04:44.135Z,10.33
2022-10-15T19:07:11.411Z,11.03
2022-10-15T19:09:39.407Z,10.60
2022-10-15T19:12:07.056Z,10.70
2022-10-15T19:14:34.607Z,10.30
2022-10-15T19:17:02.571Z,10.03
2022-10-15T19:19:30.522Z,10.47
2022-10-15T19:21:58.461Z,10.30
2022-10-15T19:24:26.263Z,8.93
2022-10-15T19:26:54.128Z,9.50
2022-10-15T19:29:21.423Z,9.47
2022-10-15T19:31:52.366Z,10.10
2022-10-15T19:34:20.021Z,10.17
2022-10-15T19:36:48.527Z,10.50
2022-10-15T19:39:17.754Z,10.43
2022-10-15T19:41:45.431Z,10.50
2022-10-15T19:44:14.359Z,9.87
2022-10-15T19:46:41.602Z,9.37
2022-10-15T19:49:09.010Z,10.57
2022-10-15T19:51:36.037Z,10.70
2022-10-15T19:54:03.825Z,10.43
2022-10-15T19:56:31.254Z,12.07
2022-10-15T19:58:59.418Z,10.30
2022-10-15T20:01:27.536Z,10.43
2022-10-15T20:03:55.496Z,11.07
2022-10-15T20:06:22.777Z,11.07
2022-10-15T20:08:49.827Z,11.30
2022-10-15T20:11:17.071Z,11.57
2022-10-15T20:13:45.406Z,10.37
2022-10-15T20:16:18.452Z,15.87
2022-10-15T20:18:48.702Z,11.53
2022-10-15T20:21:16.370Z,11.00
2022-10-15T20:23:43.958Z,11.37
2022-10-15T20:26:12.864Z,11.13
2022-10-15T20:28:41.561Z,10.57
2022-10-15T20:31:14.656Z,11.43
2022-10-15T20:33:42.974Z,11.83
2022-10-15T20:36:14.516Z,10.80
2022-10-15T20:38:42.755Z,10.23
2022-10-15T20:41:11.484Z,10.50
2022-10-15T20:43:38.807Z,10.30
2022-10-15T20:46:08.604Z,11.27
2022-10-15T20:48:35.632Z,11.83
2022-10-15T20:51:02.539Z,10.53
2022-10-15T20:53:29.489Z,11.57
2022-10-15T20:55:56.284Z,10.70
2022-10-15T20:58:23.239Z,10.27
2022-10-15T21:00:50.041Z,11.17
2022-10-15T21:03:16.928Z,11.03
2022-10-15T21:05:43.727Z,9.60
2022-10-15T21:08:10.601Z,9.77
2022-10-15T21:10:37.468Z,10.33
2022-10-15T21:13:04.502Z,11.17
2022-10-15T21:15:31.331Z,9.50
2022-10-15T21:17:58.737Z,10.20
2022-10-15T21:20:26.106Z,9.73
2022-10-15T21:22:53.431Z,8.83
2022-10-15T21:25:20.414Z,9.27
2022-10-15T21:27:47.242Z,9.67
2022-10-15T21:30:14.119Z,10.30
2022-10-15T21:32:40.916Z,9.10
2022-10-15T21:35:08.022Z,8.67
2022-10-15T21:37:35.612Z,9.13
2022-10-15T21:40:02.597Z,9.20
2022-10-15T21:42:29.906Z,8.93
2022-10-15T21:44:58.244Z,8.50
2022-10-15T21:47:25.550Z,9.30
2022-10-15T21:49:52.544Z,9.17
2022-10-15T21:52:19.393Z,8.53
2022-10-15T21:54:46.261Z,9.10
2022-10-15T21:57:13.052Z,8.93
2022-10-15T21:59:40.071Z,7.93
2022-10-15T22:02:06.940Z,8.33
2022-10-15T22:04:35.363Z,9.13
2022-10-15T22:07:03.193Z,9.13
2022-10-15T22:09:30.331Z,9.17
2022-10-15T22:11:57.913Z,9.20
2022-10-15T22:14:24.666Z,9.20
2022-10-15T22:16:51.520Z,9.43
2022-10-15T22:19:18.849Z,8.63
2022-10-15T22:21:45.948Z,9.70
2022-10-15T22:24:14.273Z,9.90
2022-10-15T22:26:42.616Z,8.90
2022-10-15T22:29:12.060Z,8.90
2022-10-15T22:31:38.871Z,8.93
2022-10-15T22:34:05.666Z,9.67
2022-10-15T22:36:32.665Z,9.03
2022-10-15T22:39:03.807Z,8.63
2022-10-15T22:41:32.168Z,10.07
2022-10-15T22:43:59.191Z,10.00
2022-10-15T22:46:26.392Z,9.07
2022-10-15T22:48:53.897Z,9.67
2022-10-15T22:51:21.294Z,9.70
2022-10-15T22:53:48.195Z,9.70
2022-10-15T22:56:16.672Z,10.27
2022-10-15T22:58:43.993Z,11.07
2022-10-15T23:01:15.289Z,10.97
2022-10-15T23:03:43.194Z,10.33
2022-10-15T23:06:10.570Z,10.37
2022-10-15T23:08:37.795Z,11.80
2022-10-15T23:11:24.857Z,10.00
2022-10-15T23:13:55.634Z,10.77
2022-10-15T23:16:23.955Z,9.80
2022-10-15T23:18:56.909Z,10.27
2022-10-15T23:21:34.120Z,10.37
2022-10-15T23:24:01.364Z,10.73
2022-10-15T23:29:01.503Z,9.97
2022-10-15T23:31:32.497Z,11.57
2022-10-15T23:33:59.823Z,10.93
2022-10-15T23:36:27.155Z,11.40
2022-10-15T23:39:01.415Z,10.60
2022-10-15T23:41:28.803Z,11.10
2022-10-15T23:43:55.878Z,10.50
2022-10-15T23:46:22.689Z,10.37
2022-10-15T23:48:49.787Z,10.37
2022-10-15T23:51:19.726Z,11.73
2022-10-15T23:53:46.877Z,12.30
2022-10-15T23:56:13.673Z,11.87
2022-10-15T23:58:40.656Z,10.90
